createdAt,value
2022-10-16T00:01:49.396Z,1.33
2022-10-16T00:04:18.371Z,1.40
2022-10-16T00:06:48.607Z,1.70
2022-10-16T00:09:17.963Z,1.10
2022-10-16T00:11:47.727Z,1.58
2022-10-16T00:14:19.007Z,1.50
2022-10-16T00:16:47.626Z,1.30
2022-10-16T00:19:16.591Z,1.30
2022-10-16T00:21:45.882Z,1.35
2022-10-16T00:24:16.996Z,1.30
2022-10-16T00:26:46.707Z,1.30
2022-10-16T00:29:16.454Z,1.23
2022-10-16T00:31:44.904Z,1.25
2022-10-16T00:34:13.604Z,1.35
2022-10-16T00:36:43.392Z,1.33
2022-10-16T00:39:12.018Z,1.10
2022-10-16T00:41:42.032Z,1.30
2022-10-16T00:44:45.782Z,1.10
2022-10-16T00:47:21.605Z,1.42
2022-10-16T00:49:54.247Z,1.00
2022-10-16T00:52:24.961Z,1.20
2022-10-16T00:54:56.583Z,1.45
2022-10-16T00:57:29.505Z,1.20
2022-10-16T01:00:01.716Z,1.08
2022-10-16T01:02:30.434Z,1.20
2022-10-16T01:05:00.016Z,1.40
2022-10-16T01:07:43.513Z,1.10
2022-10-16T01:10:22.653Z,1.30
2022-10-16T01:12:57.514Z,1.35
2022-10-16T01:15:32.125Z,1.30
2022-10-16T01:18:08.290Z,1.30
2022-10-16T01:20:44.396Z,1.38
2022-10-16T01:23:30.282Z,1.23
2022-10-16T01:26:27.355Z,1.48
2022-10-16T01:29:00.512Z,0.98
2022-10-16T01:31:34.036Z,1.08
2022-10-16T01:34:07.709Z,1.20
2022-10-16T01:36:41.743Z,1.35
2022-10-16T01:39:14.302Z,1.08
2022-10-16T01:41:52.291Z,1.15
2022-10-16T01:44:28.457Z,1.13
2022-10-16T01:46:58.903Z,1.02
2022-10-16T01:49:32.264Z,1.40
2022-10-16T01:52:05.065Z,1.10
2022-10-16T01:54:37.993Z,1.42
2022-10-16T01:57:17.023Z,0.93
2022-10-16T01:59:53.330Z,1.20
2022-10-16T02:02:25.836Z,1.10
2022-10-16T02:05:00.742Z,1.20
2022-10-16T02:07:29.536Z,1.23
2022-10-16T02:10:00.130Z,1.50
2022-10-16T02:12:32.658Z,1.35
2022-10-16T02:15:02.504Z,1.40
2022-10-16T02:17:32.329Z,1.30
2022-10-16T02:20:01.728Z,1.38
2022-10-16T02:22:32.873Z,1.30
2022-10-16T02:25:05.084Z,1.17
2022-10-16T02:27:41.427Z,1.30
2022-10-16T02:30:19.066Z,1.17
2022-10-16T02:32:51.332Z,1.35
2022-10-16T02:35:24.731Z,1.50
2022-10-16T02:37:55.391Z,1.38
2022-10-16T02:40:25.477Z,1.10
2022-10-16T02:42:57.373Z,1.25
2022-10-16T02:45:27.172Z,1.20
2022-10-16T02:47:56.710Z,1.38
2022-10-16T02:50:26.272Z,1.15
2022-10-16T02:52:54.704Z,1.33
2022-10-16T02:55:25.190Z,1.40
2022-10-16T02:57:55.206Z,1.40
2022-10-16T03:00:23.685Z,1.20
2022-10-16T03:02:55.149Z,1.33
2022-10-16T03:05:23.662Z,1.50
2022-10-16T03:07:54.944Z,1.35
2022-10-16T03:10:23.610Z,1.13
2022-10-16T03:12:59.232Z,1.20
2022-10-16T03:15:30.825Z,1.10
2022-10-16T03:18:01.790Z,1.20
2022-10-16T03:20:30.557Z,1.15
2022-10-16T03:23:01.135Z,1.20
2022-10-16T03:25:32.045Z,1.08
2022-10-16T03:28:00.950Z,0.82
2022-10-16T03:30:30.537Z,1.60
2022-10-16T03:33:00.936Z,1.02
2022-10-16T03:35:31.708Z,1.02
2022-10-16T03:38:00.490Z,1.00
2022-10-16T03:41:06.165Z,0.90
2022-10-16T03:43:41.470Z,1.00
2022-10-16T03:46:11.648Z,1.00
2022-10-16T03:48:41.898Z,0.95
2022-10-16T03:51:36.909Z,1.10
2022-10-16T03:54:11.601Z,1.00
2022-10-16T03:56:44.179Z,1.02
2022-10-16T03:59:12.622Z,0.90
2022-10-16T04:02:03.334Z,1.25
2022-10-16T04:04:40.620Z,0.80
2022-10-16T04:07:09.420Z,1.17
2022-10-16T04:09:45.423Z,1.23
2022-10-16T04:12:17.332Z,1.13
2022-10-16T04:14:51.274Z,1.33
2022-10-16T04:17:34.389Z,1.00
2022-10-16T04:20:05.088Z,0.93
2022-10-16T04:22:46.558Z,1.30
2022-10-16T04:25:15.581Z,1.10
2022-10-16T04:27:46.080Z,0.90
2022-10-16T04:30:31.084Z,1.02
2022-10-16T04:33:02.758Z,0.90
2022-10-16T04:35:38.988Z,1.00
2022-10-16T04:38:07.930Z,1.10
2022-10-16T04:40:37.562Z,0.98
2022-10-16T04:46:00.400Z,1.05
2022-10-16T04:48:29.603Z,1.05
2022-10-16T04:50:59.616Z,0.90
2022-10-16T04:53:28.616Z,1.42
2022-10-16T04:55:57.344Z,1.15
2022-10-16T04:58:26.712Z,1.00
2022-10-16T05:01:00.239Z,1.00
2022-10-16T05:06:08.775Z,1.10
2022-10-16T05:08:37.746Z,1.38
2022-10-16T05:11:07.295Z,1.00
2022-10-16T05:13:36.054Z,1.10
2022-10-16T05:16:04.732Z,0.88
2022-10-16T05:18:34.726Z,0.82
2022-10-16T05:21:03.385Z,0.90
2022-10-16T05:23:33.569Z,0.77
2022-10-16T05:26:02.556Z,1.13
2022-10-16T05:28:35.175Z,1.10
2022-10-16T05:31:08.224Z,1.10
2022-10-16T05:33:36.898Z,1.45
2022-10-16T05:36:09.109Z,0.93
2022-10-16T05:38:41.370Z,1.10
2022-10-16T05:41:10.715Z,1.17
2022-10-16T05:43:44.323Z,0.90
2022-10-16T05:46:13.037Z,1.13
2022-10-16T05:48:43.204Z,1.00
2022-10-16T05:51:16.513Z,1.00
2022-10-16T05:53:46.584Z,1.02
2022-10-16T05:56:15.297Z,0.98
2022-10-16T05:58:45.773Z,1.02
2022-10-16T06:01:17.745Z,1.00
2022-10-16T06:03:46.709Z,1.42
2022-10-16T06:06:18.763Z,1.30
2022-10-16T06:08:51.137Z,1.08
2022-10-16T06:11:22.423Z,1.48
2022-10-16T06:13:52.739Z,1.05
2022-10-16T06:16:21.569Z,0.88
2022-10-16T06:18:53.588Z,1.35
2022-10-16T06:21:27.103Z,1.15
2022-10-16T06:23:59.105Z,1.20
2022-10-16T06:26:30.470Z,1.20
2022-10-16T06:29:00.724Z,1.10
2022-10-16T06:31:32.288Z,1.45
2022-10-16T06:34:06.186Z,1.20
2022-10-16T06:36:35.317Z,1.30
2022-10-16T06:39:05.971Z,1.27
2022-10-16T06:41:35.278Z,1.38
2022-10-16T06:44:03.794Z,1.10
2022-10-16T06:46:34.809Z,1.20
2022-10-16T06:49:03.634Z,1.15
2022-10-16T06:51:39.244Z,1.20
2022-10-16T06:54:12.780Z,1.70
2022-10-16T06:56:42.539Z,1.20
2022-10-16T06:59:19.564Z,1.30
2022-10-16T07:01:51.622Z,1.38
2022-10-16T07:04:22.171Z,1.10
2022-10-16T07:06:53.036Z,1.25
2022-10-16T07:09:23.333Z,1.70
2022-10-16T07:11:53.478Z,1.25
2022-10-16T07:14:29.264Z,1.15
2022-10-16T07:17:06.474Z,1.30
2022-10-16T07:19:38.169Z,1.23
2022-10-16T07:22:07.902Z,1.80
2022-10-16T07:24:39.577Z,1.63
2022-10-16T07:27:08.757Z,1.30
2022-10-16T07:29:38.849Z,1.30
2022-10-16T07:32:11.143Z,1.17
2022-10-16T07:34:40.665Z,1.23
2022-10-16T07:37:09.105Z,1.58
2022-10-16T07:39:45.202Z,1.17
2022-10-16T07:42:15.018Z,1.50
2022-10-16T07:44:44.712Z,1.30
2022-10-16T07:47:14.755Z,1.00
2022-10-16T07:49:44.659Z,1.50
2022-10-16T07:52:14.450Z,1.27
2022-10-16T07:54:46.060Z,1.13
2022-10-16T07:57:20.032Z,1.50
2022-10-16T07:59:53.967Z,1.42
2022-10-16T08:02:23.779Z,1.27
2022-10-16T08:04:53.089Z,1.50
2022-10-16T08:07:21.724Z,1.40
2022-10-16T08:09:54.109Z,1.30
2022-10-16T08:12:22.929Z,1.42
2022-10-16T08:14:53.853Z,1.33
2022-10-16T08:17:25.218Z,1.75
2022-10-16T08:19:54.063Z,1.30
2022-10-16T08:22:32.297Z,1.60
2022-10-16T08:25:02.404Z,1.50
2022-10-16T08:27:34.181Z,1.20
2022-10-16T08:30:05.545Z,1.52
2022-10-16T08:32:34.640Z,1.30
2022-10-16T08:35:05.608Z,1.23
2022-10-16T08:37:34.745Z,1.30
2022-10-16T08:40:07.949Z,1.25
2022-10-16T08:42:54.099Z,1.40
2022-10-16T08:45:32.356Z,1.25
2022-10-16T08:48:17.796Z,1.42
2022-10-16T08:50:48.513Z,1.65
2022-10-16T08:53:21.788Z,1.73
2022-10-16T08:55:55.824Z,3.10
2022-10-16T08:58:30.895Z,2.13
2022-10-16T09:01:03.022Z,1.80
2022-10-16T09:03:51.932Z,1.80
2022-10-16T09:06:38.845Z,2.17
2022-10-16T09:09:33.180Z,3.17
2022-10-16T09:12:12.863Z,3.15
2022-10-16T09:14:55.141Z,1.88
2022-10-16T09:17:39.585Z,1.70
2022-10-16T09:20:22.107Z,1.75
2022-10-16T09:23:18.969Z,2.97
2022-10-16T09:25:50.989Z,2.83
2022-10-16T09:28:22.644Z,2.40
2022-10-16T09:30:51.991Z,2.20
2022-10-16T09:33:27.242Z,2.10
2022-10-16T09:35:59.974Z,2.22
2022-10-16T09:38:32.542Z,1.92
2022-10-16T09:41:03.609Z,1.75
2022-10-16T09:43:44.699Z,1.90
2022-10-16T09:46:27.784Z,1.95
2022-10-16T09:48:59.429Z,3.05
2022-10-16T09:51:30.449Z,3.55
2022-10-16T09:54:02.090Z,2.88
2022-10-16T09:56:34.685Z,2.80
2022-10-16T09:59:13.239Z,2.00
2022-10-16T10:01:45.527Z,2.05
2022-10-16T10:04:15.459Z,1.58
2022-10-16T10:06:47.265Z,2.10
2022-10-16T10:09:24.867Z,2.17
2022-10-16T10:11:56.379Z,2.35
2022-10-16T10:14:34.592Z,2.10
2022-10-16T10:17:21.890Z,2.50
2022-10-16T10:19:56.269Z,2.28
2022-10-16T10:22:34.769Z,2.40
2022-10-16T10:25:23.303Z,2.50
2022-10-16T10:28:17.877Z,2.50
2022-10-16T10:30:58.241Z,2.40
2022-10-16T10:33:39.847Z,2.53
2022-10-16T10:36:19.282Z,2.45
2022-10-16T10:38:54.229Z,2.08
2022-10-16T10:41:57.307Z,2.50
2022-10-16T10:44:40.588Z,2.50
2022-10-16T10:47:25.563Z,2.20
2022-10-16T10:50:05.785Z,2.58
2022-10-16T10:52:53.567Z,2.45
2022-10-16T10:55:31.645Z,2.30
2022-10-16T10:58:15.622Z,1.88
2022-10-16T11:00:54.654Z,1.95
2022-10-16T11:03:45.631Z,2.00
2022-10-16T11:06:19.470Z,2.38
2022-10-16T11:08:55.381Z,1.90
2022-10-16T11:11:32.394Z,2.00
2022-10-16T11:14:06.505Z,2.10
2022-10-16T11:16:41.511Z,1.80
2022-10-16T11:19:17.392Z,1.50
2022-10-16T11:21:52.119Z,1.50
2022-10-16T11:24:27.662Z,1.75
2022-10-16T11:26:57.987Z,1.70
2022-10-16T11:29:31.902Z,1.85
2022-10-16T11:32:10.271Z,1.77
2022-10-16T11:34:46.835Z,2.22
2022-10-16T11:37:19.759Z,1.55
2022-10-16T11:39:49.107Z,1.70
2022-10-16T11:42:22.650Z,2.05
2022-10-16T11:44:57.606Z,1.98
2022-10-16T11:50:32.271Z,1.80
2022-10-16T11:53:06.873Z,1.88
2022-10-16T11:55:41.879Z,1.70
2022-10-16T11:58:24.127Z,1.90
2022-10-16T12:01:01.555Z,1.65
2022-10-16T12:03:34.480Z,1.95
2022-10-16T12:06:24.800Z,1.70
2022-10-16T12:08:54.495Z,1.80
2022-10-16T12:11:33.429Z,1.88
2022-10-16T12:14:24.897Z,1.85
2022-10-16T12:16:56.615Z,1.80
2022-10-16T12:19:27.935Z,2.00
2022-10-16T12:22:01.559Z,2.00
2022-10-16T12:24:38.615Z,2.00
2022-10-16T12:27:09.910Z,2.20
2022-10-16T12:29:41.158Z,1.90
2022-10-16T12:32:45.653Z,1.80
2022-10-16T12:35:22.398Z,2.50
2022-10-16T12:37:55.757Z,2.20
2022-10-16T12:40:32.672Z,1.48
2022-10-16T12:43:14.129Z,1.73
2022-10-16T12:45:44.283Z,1.52
2022-10-16T12:48:32.566Z,1.42
2022-10-16T12:51:25.718Z,1.40
2022-10-16T12:54:07.634Z,1.73
2022-10-16T12:56:47.967Z,1.70
2022-10-16T12:59:31.522Z,1.63
2022-10-16T13:02:34.819Z,1.70
2022-10-16T13:05:30.114Z,1.88
2022-10-16T13:08:15.527Z,2.10
2022-10-16T13:11:01.612Z,2.20
2022-10-16T13:13:54.512Z,1.90
2022-10-16T13:16:33.726Z,2.05
2022-10-16T13:19:20.152Z,2.08
2022-10-16T13:21:56.760Z,2.47
2022-10-16T13:24:44.511Z,1.85
2022-10-16T13:27:28.853Z,1.70
2022-10-16T13:30:15.720Z,1.70
2022-10-16T13:32:48.666Z,2.05
2022-10-16T13:35:27.354Z,2.28
2022-10-16T13:38:22.961Z,2.10
2022-10-16T13:41:17.752Z,1.92
2022-10-16T13:43:58.604Z,1.88
2022-10-16T13:46:28.089Z,2.30
2022-10-16T13:49:04.283Z,2.10
2022-10-16T13:51:35.144Z,2.08
2022-10-16T13:54:06.892Z,2.33
2022-10-16T13:56:36.320Z,2.15
2022-10-16T13:59:24.638Z,2.22
2022-10-16T14:02:11.006Z,2.50
2022-10-16T14:04:48.583Z,2.25
2022-10-16T14:07:28.236Z,2.20
2022-10-16T14:10:03.591Z,2.45
2022-10-16T14:12:38.893Z,2.80
2022-10-16T14:15:21.157Z,3.25
2022-10-16T14:17:53.615Z,3.00
2022-10-16T14:20:27.631Z,3.03
2022-10-16T14:23:03.495Z,3.00
2022-10-16T14:26:01.495Z,2.53
2022-10-16T14:28:46.881Z,3.08
2022-10-16T14:31:29.120Z,2.70
2022-10-16T14:33:59.748Z,2.83
2022-10-16T14:36:36.572Z,2.67
2022-10-16T14:39:08.067Z,2.53
2022-10-16T14:41:47.310Z,2.47
2022-10-16T14:44:20.633Z,2.35
2022-10-16T14:46:52.661Z,2.35
2022-10-16T14:49:39.330Z,2.70
2022-10-16T14:52:18.453Z,2.20
2022-10-16T14:54:52.383Z,2.03
2022-10-16T14:57:25.610Z,2.70
2022-10-16T15:00:24.313Z,2.45
2022-10-16T15:03:25.387Z,2.90
2022-10-16T15:06:17.688Z,2.80
2022-10-16T15:08:47.125Z,2.70
2022-10-16T15:11:25.823Z,2.65
2022-10-16T15:13:54.349Z,2.95
2022-10-16T15:16:49.446Z,2.45
2022-10-16T15:19:28.870Z,2.45
2022-10-16T15:22:04.762Z,2.45
2022-10-16T15:24:33.420Z,2.50
2022-10-16T15:27:01.803Z,2.38
2022-10-16T15:29:30.606Z,2.33
2022-10-16T15:31:59.087Z,2.00
2022-10-16T15:34:27.818Z,2.03
2022-10-16T15:36:57.984Z,2.33
2022-10-16T15:39:27.887Z,2.35
2022-10-16T15:41:56.824Z,1.98
2022-10-16T15:44:27.507Z,2.00
2022-10-16T15:47:02.221Z,1.88
2022-10-16T15:49:38.770Z,2.00
2022-10-16T15:52:07.358Z,1.92
2022-10-16T15:54:37.324Z,2.40
2022-10-16T15:57:05.988Z,2.30
2022-10-16T15:59:34.773Z,1.92
2022-10-16T16:02:03.985Z,2.40
2022-10-16T16:04:43.490Z,2.22
2022-10-16T16:07:13.329Z,2.42
2022-10-16T16:09:45.299Z,2.13
2022-10-16T16:12:14.408Z,2.20
2022-10-16T16:14:47.298Z,2.88
2022-10-16T16:17:21.485Z,2.60
2022-10-16T16:19:50.339Z,2.58
2022-10-16T16:22:19.077Z,2.72
2022-10-16T16:24:49.008Z,2.70
2022-10-16T16:27:17.692Z,2.13
2022-10-16T16:29:46.483Z,2.55
2022-10-16T16:32:15.381Z,2.50
2022-10-16T16:34:43.699Z,2.85
2022-10-16T16:37:12.168Z,2.58
2022-10-16T16:39:40.657Z,2.88
2022-10-16T16:42:11.618Z,3.17
2022-10-16T16:44:40.127Z,3.35
2022-10-16T16:47:09.421Z,3.35
2022-10-16T16:49:38.081Z,3.70
2022-10-16T16:52:06.805Z,3.58
2022-10-16T16:54:35.573Z,3.40
2022-10-16T16:57:04.402Z,4.15
2022-10-16T16:59:34.993Z,3.67
2022-10-16T17:02:04.054Z,3.80
2022-10-16T17:04:32.624Z,4.43
2022-10-16T17:07:01.098Z,4.40
2022-10-16T17:09:30.110Z,3.88
2022-10-16T17:11:58.678Z,3.63
2022-10-16T17:14:27.679Z,3.17
2022-10-16T17:16:57.901Z,3.47
2022-10-16T17:19:26.430Z,4.15
2022-10-16T17:21:55.389Z,3.60
2022-10-16T17:24:25.196Z,4.38
2022-10-16T17:26:53.860Z,3.28
2022-10-16T17:29:22.414Z,3.45
2022-10-16T17:31:51.610Z,3.53
2022-10-16T17:34:21.472Z,3.50
2022-10-16T17:36:50.338Z,4.22
2022-10-16T17:39:19.801Z,3.83
2022-10-16T17:41:48.720Z,3.85
2022-10-16T17:44:21.151Z,4.40
2022-10-16T17:46:51.864Z,3.72
2022-10-16T17:49:26.147Z,3.70
2022-10-16T17:51:55.922Z,3.35
2022-10-16T17:54:24.326Z,3.97
2022-10-16T17:56:52.890Z,3.90
2022-10-16T17:59:23.378Z,3.10
2022-10-16T18:01:52.420Z,3.00
2022-10-16T18:04:22.286Z,4.00
2022-10-16T18:06:51.005Z,3.70
2022-10-16T18:09:22.084Z,4.78
2022-10-16T18:11:55.639Z,3.88
2022-10-16T18:14:24.024Z,4.65
2022-10-16T18:16:53.327Z,4.78
2022-10-16T18:19:23.823Z,3.75
2022-10-16T18:21:52.883Z,4.32
2022-10-16T18:24:21.964Z,4.13
2022-10-16T18:26:52.518Z,3.90
2022-10-16T18:29:21.154Z,5.22
2022-10-16T18:31:50.108Z,5.93
2022-10-16T18:34:19.773Z,5.47
2022-10-16T18:36:52.703Z,7.22
2022-10-16T18:39:25.338Z,5.60
2022-10-16T18:41:59.920Z,6.50
2022-10-16T18:44:31.376Z,6.22
2022-10-16T18:47:00.247Z,6.22
2022-10-16T18:49:29.994Z,5.70
2022-10-16T18:52:02.246Z,5.90
2022-10-16T18:54:32.190Z,6.07
2022-10-16T18:57:01.109Z,5.95
2022-10-16T18:59:29.706Z,6.90
2022-10-16T19:02:04.654Z,6.80
2022-10-16T19:04:33.249Z,6.32
2022-10-16T19:07:03.481Z,5.88
2022-10-16T19:09:32.106Z,4.65
2022-10-16T19:12:00.889Z,5.95
2022-10-16T19:14:30.333Z,5.50
2022-10-16T19:16:59.560Z,5.35
2022-10-16T19:19:28.203Z,4.10
2022-10-16T19:22:11.886Z,5.68
2022-10-16T19:24:43.090Z,4.07
2022-10-16T19:27:12.859Z,6.72
2022-10-16T19:29:41.264Z,5.53
2022-10-16T19:32:09.984Z,5.43
2022-10-16T19:34:39.145Z,4.88
2022-10-16T19:37:10.806Z,6.00
2022-10-16T19:39:39.192Z,5.75
2022-10-16T19:42:09.362Z,6.05
2022-10-16T19:44:37.960Z,5.78
2022-10-16T19:47:06.823Z,5.93
2022-10-16T19:49:35.368Z,5.47
2022-10-16T19:52:03.923Z,5.18
2022-10-16T19:54:32.837Z,5.40
2022-10-16T19:57:02.004Z,4.95
2022-10-16T19:59:32.184Z,5.65
2022-10-16T20:02:01.235Z,5.45
2022-10-16T20:04:29.578Z,5.03
2022-10-16T20:06:58.435Z,6.00
2022-10-16T20:09:26.845Z,4.35
2022-10-16T20:11:55.218Z,5.05
2022-10-16T20:14:23.688Z,4.35
2022-10-16T20:16:54.323Z,4.15
2022-10-16T20:19:23.652Z,3.85
2022-10-16T20:21:52.011Z,4.85
2022-10-16T20:24:20.758Z,5.07
2022-10-16T20:26:49.398Z,4.95
2022-10-16T20:29:18.281Z,5.63
2022-10-16T20:31:46.782Z,5.85
2022-10-16T20:34:16.699Z,5.25
2022-10-16T20:36:46.939Z,5.68
2022-10-16T20:39:15.768Z,5.03
2022-10-16T20:41:44.606Z,4.82
2022-10-16T20:44:13.462Z,4.85
2022-10-16T20:46:42.990Z,4.38
2022-10-16T20:49:28.288Z,4.05
2022-10-16T20:52:01.834Z,4.40
2022-10-16T20:54:30.399Z,4.43
2022-10-16T20:56:59.068Z,4.40
2022-10-16T20:59:27.628Z,4.25
2022-10-16T21:01:56.153Z,2.90
2022-10-16T21:04:24.663Z,1.40
2022-10-16T21:06:54.171Z,1.10
2022-10-16T21:09:25.407Z,1.05
2022-10-16T21:11:54.560Z,1.15
2022-10-16T21:14:23.498Z,1.00
2022-10-16T21:16:52.130Z,0.98
2022-10-16T21:19:20.640Z,0.80
2022-10-16T21:21:50.341Z,1.10
2022-10-16T21:24:19.489Z,0.90
2022-10-16T21:26:50.110Z,1.00
2022-10-16T21:29:21.619Z,1.20
2022-10-16T21:31:50.639Z,1.08
2022-10-16T21:34:19.543Z,0.80
2022-10-16T21:36:49.391Z,1.20
2022-10-16T21:39:19.748Z,1.35
2022-10-16T21:41:51.111Z,1.98
2022-10-16T21:44:21.085Z,1.90
2022-10-16T21:46:51.930Z,1.40
2022-10-16T21:49:21.117Z,1.95
2022-10-16T21:51:51.731Z,2.50
2022-10-16T21:54:22.279Z,1.77
2022-10-16T21:56:53.854Z,2.10
2022-10-16T21:59:22.462Z,2.00
2022-10-16T22:01:54.091Z,2.13
2022-10-16T22:04:23.342Z,2.05
2022-10-16T22:06:51.983Z,1.90
2022-10-16T22:09:20.544Z,2.30
2022-10-16T22:11:51.272Z,2.55
2022-10-16T22:14:23.596Z,2.20
2022-10-16T22:16:52.942Z,2.40
2022-10-16T22:19:23.629Z,2.90
2022-10-16T22:21:57.562Z,2.78
2022-10-16T22:24:26.415Z,2.45
2022-10-16T22:26:55.350Z,2.80
2022-10-16T22:29:26.720Z,2.47
2022-10-16T22:31:56.292Z,2.88
2022-10-16T22:34:24.575Z,2.40
2022-10-16T22:36:53.380Z,2.65
2022-10-16T22:39:21.764Z,2.58
2022-10-16T22:41:50.296Z,2.67
2022-10-16T22:44:18.829Z,2.67
2022-10-16T22:46:49.271Z,3.10
2022-10-16T22:49:20.669Z,2.85
2022-10-16T22:54:23.043Z,2.88
2022-10-16T22:56:51.615Z,2.38
2022-10-16T22:59:20.069Z,2.85
2022-10-16T23:01:50.502Z,2.58
2022-10-16T23:04:19.038Z,3.17
2022-10-16T23:06:47.649Z,3.40
2022-10-16T23:09:16.128Z,3.03
2022-10-16T23:11:44.481Z,3.05
2022-10-16T23:14:13.029Z,3.05
2022-10-16T23:16:41.507Z,3.28
2022-10-16T23:19:12.436Z,2.80
2022-10-16T23:21:41.191Z,2.92
2022-10-16T23:24:09.829Z,3.15
2022-10-16T23:26:38.456Z,2.95
2022-10-16T23:29:08.170Z,3.47
2022-10-16T23:31:37.292Z,3.05
2022-10-16T23:34:06.076Z,3.30
2022-10-16T23:36:36.494Z,2.22
2022-10-16T23:39:05.270Z,3.55
2022-10-16T23:41:33.870Z,3.00
2022-10-16T23:44:02.510Z,3.40
2022-10-16T23:46:31.364Z,3.10
2022-10-16T23:49:00.383Z,3.00
2022-10-16T23:51:30.580Z,2.95
2022-10-16T23:54:00.633Z,3.08
2022-10-16T23:56:29.236Z,2.90
2022-10-16T23:58:58.249Z,3.25
